Altona, IL

1:18 PM CDT on October 01, 2014 (GMT -0500)
East Burch St | Change Station
CLOSE
Current Station
Personal Weather Station
Location: Wataga, IL
Elevation: 840 ft
Nearby Weather Stations

Elev 840 ft 41.03 °N, 90.28 °W | Updated 3 seconds ago

Clear
Clear
69.8 °F
Feels Like 69.8 °F
N
5.4
Wind Variable Wind from SSE
Gusts 7.0 mph

Today
High -- | Low -- °F
--% Chance of Precip.
Yesterday
High -- | Low -- °F
Precip. -- in
6:57 AM 6:42 PM
Waxing Crescent, 50% visible
Pressure 29.98 in
Visibility 10.0 miles
Clouds Clear
Dew Point 60 °F
Humidity 70%
Rainfall 0.00 in
Snow Depth Not available.
UV 6 out of 12
Pollen 4.30 out of 12
Ozone Good
PM2.5 Good
Flu Activity Not available.
METAR KGBG 301835Z AUTO 06006KT 10SM CLR 17/12 A2998 RMK AO2 T01730121

More Conditions Fewer Conditions

Pressure 29.98 in
Visibility 10.0 miles
Clouds Clear
Dew Point 60 °F
Humidity 70%
Rainfall 0.00 in
Snow Depth Not available.
UV 6 out of 12
Pollen 4.30 out of 12
Ozone Good
PM2.5 Good
Flu Activity Not available.
METAR KGBG 301835Z AUTO 06006KT 10SM CLR 17/12 A2998 RMK AO2 T01730121

More Conditions Fewer Conditions

10-Day Weather Forecast

Almanac

Astronomy

Oct. 01, 2014 Rise Set
Actual Time 6:57 AM CDT 6:42 PM CDT
Civil Twilight 6:29 AM CDT 7:09 PM CDT
Nautical Twilight 5:57 AM CDT 7:41 PM CDT
Astronomical Twilight 5:25 AM CDT 8:14 PM CDT
Moon 2:00 PM CDT No Moon Set
Length of Visible Light 12h 40m
Length of Day
11h 45m
Tomorrow will be 2m 43s shorter.
Waxing Crescent, 50% of the Moon is Illuminated
Today
Waxing Crescent
Oct 1
First Quarter
Oct 8
Full
Oct 15
Last Quarter
Oct 23
New

Today's Extremes

State Highs State Lows

Community

WunderPhotos

Upload Photos

1,758,008 photos uploaded!

WunderBlogs® & News

By Dr. Jeff Masters
Director of Meteorology, Weather Underground
By Kari Strenfel
Meteorologist, Weather Underground
By Christopher C. Burt
Weather Historian, Weather Underground
October 1, 2014
October 1, 2014
October 1, 2014

Nearby

Air Quality

  Air Quality AQ Index Pollutant
Yesterday Good
PM2.5
Yesterday Good
OZONE
Current Good
PM2.5
Current Good
OZONE
Wednesday Moderate
PM2.5
Thursday Moderate
PM2.5
Friday Good
PM2.5
Saturday Good
PM2.5

Snow Depth

Station Depth Elevation
No new snow has been reported.

Earthquake Activity

City Distance Mag. Time & Date
No recent earthquake activity has been reported nearby.
Minimum magnitude displayed is 2.5.

Coastal Water Temperatures

Place Temperature
No Stations Reporting

Nearby Weather Stations